Time;durP1;ratioP1;P1;durP2;ratioP2;P2;SDS_P1;SDS_P2;PMS_P1;PMS_P2;Temp;Humidity;BMP_temperature;BMP_pressure;BME280_temperature;BME280_humidity;BME280_pressure;Samples;Min_cycle;Max_cycle;Signal;HPM_P1;HPM_P2
2021/03/21 00:00:52;;;;;;;13.82;10.52;;;;;;;4.85;79.88;101130.06;5015703;28;20161;-73
2021/03/21 00:03:20;;;;;;;15.50;10.50;;;;;;;4.84;80.40;101138.88;5016921;28;20100;-73
2021/03/21 00:05:47;;;;;;;14.70;10.65;;;;;;;4.87;80.23;101138.84;5015636;28;20054;-73
2021/03/21 00:08:19;;;;;;;13.30;9.82;;;;;;;4.83;80.63;101137.16;5015793;28;20056;-71
2021/03/21 00:10:54;;;;;;;14.18;11.05;;;;;;;4.62;81.12;101120.84;5016717;28;20050;-72
2021/03/21 00:13:21;;;;;;;16.52;11.95;;;;;;;4.69;81.23;101135.66;5016366;28;20328;-72
2021/03/21 00:15:49;;;;;;;16.42;12.02;;;;;;;4.64;82.00;101124.34;5016533;28;20435;-72
2021/03/21 00:18:17;;;;;;;14.60;12.40;;;;;;;4.63;81.79;101125.22;5016444;28;20387;-72
2021/03/21 00:20:44;;;;;;;16.20;12.27;;;;;;;4.64;81.90;101126.97;5016373;28;20506;-72
2021/03/21 00:23:11;;;;;;;19.98;12.32;;;;;;;4.62;81.84;101118.19;5015562;28;20053;-73
2021/03/21 00:25:38;;;;;;;17.10;11.85;;;;;;;4.51;82.06;101106.97;5015232;28;20054;-72
2021/03/21 00:28:10;;;;;;;15.88;11.82;;;;;;;4.55;82.95;101114.81;4998988;28;20062;-72
2021/03/21 00:30:40;;;;;;;20.13;12.63;;;;;;;4.59;83.19;101119.13;5016522;28;20125;-71
2021/03/21 00:33:08;;;;;;;15.87;10.67;;;;;;;4.61;83.53;101119.09;5015810;28;20057;-73
2021/03/21 00:35:35;;;;;;;15.35;10.88;;;;;;;4.44;83.64;101100.94;5016051;28;20061;-72
2021/03/21 00:38:05;;;;;;;15.80;10.95;;;;;;;4.61;83.75;101116.44;5016442;28;20060;-73
2021/03/21 00:40:32;;;;;;;9.25;7.63;;;;;;;4.64;83.41;101116.41;5016102;28;20128;-72
2021/03/21 00:42:59;;;;;;;13.50;10.02;;;;;;;4.69;83.24;101111.88;5016006;28;20137;-72
2021/03/21 00:45:26;;;;;;;14.77;10.27;;;;;;;4.75;83.38;101116.19;5015745;28;20104;-73
2021/03/21 00:47:53;;;;;;;17.48;9.77;;;;;;;4.68;83.70;101112.78;5016215;28;20073;-72
2021/03/21 00:50:27;;;;;;;13.23;9.65;;;;;;;4.76;83.55;101116.13;5016102;28;20149;-73
2021/03/21 00:52:53;;;;;;;13.60;10.40;;;;;;;4.76;83.72;101105.53;5014743;28;20046;-73
2021/03/21 00:55:20;;;;;;;15.38;10.98;;;;;;;4.80;83.70;101116.94;5015572;28;20049;-72
2021/03/21 00:57:46;;;;;;;12.82;10.02;;;;;;;4.81;83.99;101107.22;5015043;28;20093;-72
2021/03/21 01:00:22;;;;;;;15.80;11.10;;;;;;;4.74;83.96;101098.56;4998118;28;20406;-72
2021/03/21 01:02:48;;;;;;;14.35;11.35;;;;;;;4.73;84.66;101102.97;5015561;28;20450;-71
2021/03/21 01:05:37;;;;;;;16.75;11.05;;;;;;;4.83;84.65;101106.28;5015515;28;20148;-72
2021/03/21 01:08:17;;;;;;;12.55;10.35;;;;;;;4.71;85.50;101106.56;5015386;28;20066;-72
2021/03/21 01:10:44;;;;;;;17.13;12.10;;;;;;;4.59;86.12;101102.41;5015752;28;20053;-72
2021/03/21 01:13:10;;;;;;;17.60;12.68;;;;;;;4.52;86.67;101095.50;5015410;28;20061;-72
2021/03/21 01:15:36;;;;;;;18.13;13.18;;;;;;;4.54;87.08;101102.50;5015473;28;20050;-71
2021/03/21 01:18:03;;;;;;;15.25;11.75;;;;;;;4.54;86.66;101097.22;5015639;28;20046;-72
2021/03/21 01:20:30;;;;;;;19.13;12.18;;;;;;;4.55;87.26;101095.44;5015443;28;20108;-71
2021/03/21 01:22:56;;;;;;;18.15;12.57;;;;;;;4.43;87.70;101081.56;5014563;28;20419;-72
2021/03/21 01:25:27;;;;;;;18.23;12.25;;;;;;;4.46;88.26;101075.31;5015171;28;20439;-73
2021/03/21 01:27:54;;;;;;;;;;;;;;;4.51;88.63;101064.69;5015839;28;20054;-73
2021/03/21 01:30:22;;;;;;;16.63;11.93;;;;;;;4.49;87.87;101048.84;5015507;28;19921;-71
2021/03/21 01:32:50;;;;;;;17.50;12.35;;;;;;;4.60;88.35;101057.44;5014029;28;20077;-72
2021/03/21 01:35:16;;;;;;;16.85;12.45;;;;;;;4.58;88.50;101056.56;5014056;28;20100;-72
2021/03/21 01:37:42;;;;;;;18.55;13.07;;;;;;;4.51;88.25;101056.75;5015456;28;20407;-72
2021/03/21 01:40:16;;;;;;;16.85;11.70;;;;;;;4.54;88.45;101052.28;5015296;28;20053;-71
2021/03/21 01:42:46;;;;;;;15.82;11.40;;;;;;;4.53;88.19;101054.94;5015260;28;20391;-73
2021/03/21 01:45:40;;;;;;;15.73;12.50;;;;;;;4.56;88.97;101052.22;5019943;28;20088;-72
2021/03/21 01:48:14;;;;;;;15.93;12.15;;;;;;;4.59;88.33;101057.44;5020461;28;20056;-73
2021/03/21 01:50:58;;;;;;;19.27;12.57;;;;;;;4.56;88.73;101050.44;5021912;28;20435;-73
2021/03/21 01:53:26;;;;;;;14.30;12.30;;;;;;;4.64;88.38;101047.66;5023450;28;20092;-71
2021/03/21 01:55:54;;;;;;;14.57;11.45;;;;;;;4.67;87.92;101044.94;5028182;28;20057;-72
2021/03/21 01:58:24;;;;;;;15.98;12.07;;;;;;;4.59;88.98;101031.00;5027180;28;20053;-72
2021/03/21 02:00:55;;;;;;;15.70;12.75;;;;;;;4.47;88.88;101018.94;5021690;28;20089;-72
2021/03/21 02:03:22;;;;;;;17.17;12.45;;;;;;;4.48;89.02;101018.88;5022051;28;20125;-73
2021/03/21 02:05:53;;;;;;;17.45;12.85;;;;;;;4.48;89.38;101018.88;5021538;28;20359;-72
2021/03/21 02:08:48;;;;;;;18.52;12.82;;;;;;;4.48;89.62;101020.69;5021566;28;20347;-72
2021/03/21 02:11:34;;;;;;;18.80;13.00;;;;;;;4.46;90.27;101019.81;5018768;28;20333;-72
2021/03/21 02:14:09;;;;;;;18.33;13.57;;;;;;;4.45;90.63;101011.03;5021509;28;20133;-72
2021/03/21 02:16:41;;;;;;;16.23;13.10;;;;;;;4.39;90.52;100997.94;5021571;28;20060;-73
2021/03/21 02:19:38;;;;;;;19.55;15.23;;;;;;;4.37;90.70;101012.09;5021779;28;20175;-72
2021/03/21 02:22:12;;;;;;;21.30;15.85;;;;;;;4.33;90.92;101000.72;5021383;28;20062;-72
2021/03/21 02:25:17;;;;;;;22.45;17.02;;;;;;;4.33;91.66;101000.72;5021331;28;20054;-72
2021/03/21 02:28:35;;;;;;;22.60;16.73;;;;;;;4.35;91.36;101002.44;5017479;28;20041;-73
2021/03/21 02:31:09;;;;;;;21.90;16.45;;;;;;;4.31;92.45;100997.25;5012406;28;20061;-72
2021/03/21 02:34:10;;;;;;;22.63;16.20;;;;;;;4.34;92.82;100994.53;5021161;28;20054;-73
2021/03/21 02:36:47;;;;;;;26.10;17.20;;;;;;;4.47;91.83;100980.13;5010186;28;20104;-72
2021/03/21 02:39:40;;;;;;;25.55;18.63;;;;;;;4.31;92.52;100981.41;5021162;28;20275;-73
2021/03/21 02:42:14;;;;;;;28.33;18.65;;;;;;;4.29;92.73;100985.81;5021148;28;20077;-73
2021/03/21 02:44:48;;;;;;;26.45;18.42;;;;;;;4.39;92.14;100984.72;5021354;28;20049;-73
2021/03/21 02:47:21;;;;;;;30.88;20.60;;;;;;;4.38;92.07;100967.13;5021003;28;20061;-72
2021/03/21 02:49:52;;;;;;;31.25;20.10;;;;;;;4.32;91.91;100968.13;5021404;28;20064;-72
2021/03/21 02:52:24;;;;;;;34.13;22.25;;;;;;;4.30;92.30;100969.94;5021034;28;20428;-72
2021/03/21 02:54:56;;;;;;;32.55;22.40;;;;;;;4.28;92.90;100955.91;5021217;28;20108;-71
2021/03/21 02:57:26;;;;;;;36.05;24.20;;;;;;;4.38;92.24;100972.44;5017453;28;20080;-72
2021/03/21 02:59:58;;;;;;;38.25;25.48;;;;;;;4.44;92.06;100974.06;5007971;28;20081;-72
2021/03/21 03:02:30;;;;;;;40.75;27.30;;;;;;;4.36;92.43;100966.28;4998250;28;20042;-71
2021/03/21 03:05:15;;;;;;;45.50;29.73;;;;;;;4.42;92.21;100968.78;4998655;28;20054;-73
2021/03/21 03:07:48;;;;;;;45.80;29.30;;;;;;;4.41;92.29;100959.13;4998279;28;20050;-72
2021/03/21 03:10:37;;;;;;;42.92;28.33;;;;;;;4.35;92.51;100943.41;4998270;28;20113;-72
2021/03/21 03:13:10;;;;;;;49.47;31.17;;;;;;;4.39;92.34;100955.66;4997187;28;20043;-72
2021/03/21 03:15:39;;;;;;;50.40;32.67;;;;;;;4.29;93.29;100952.34;4998165;28;20463;-72
2021/03/21 03:18:11;;;;;;;52.95;32.75;;;;;;;4.17;93.61;100953.50;4997034;28;20128;-72
2021/03/21 03:20:47;;;;;;;54.95;32.75;;;;;;;4.17;93.89;100956.13;4998028;28;20081;-73
2021/03/21 03:23:24;;;;;;;54.67;32.70;;;;;;;4.23;94.56;100951.63;4998231;28;20051;-73
2021/03/21 03:26:20;;;;;;;56.05;34.90;;;;;;;4.16;93.72;100935.03;4998196;28;20065;-72
2021/03/21 03:28:52;;;;;;;63.45;36.88;;;;;;;4.07;94.99;100936.09;4997493;28;20058;-72
2021/03/21 03:31:56;;;;;;;57.50;33.55;;;;;;;4.17;94.43;100939.41;4997984;28;20109;-73
2021/03/21 03:34:24;;;;;;;51.58;33.50;;;;;;;4.16;94.15;100935.91;4995630;28;20460;-73
2021/03/21 03:36:52;;;;;;;58.40;34.90;;;;;;;4.21;94.92;100938.44;4997198;28;20396;-71
2021/03/21 03:39:18;;;;;;;56.90;34.58;;;;;;;4.19;94.74;100940.22;4996692;28;20069;-72
2021/03/21 03:41:57;;;;;;;55.60;35.05;;;;;;;4.22;94.45;100937.53;4997547;28;20050;-71
2021/03/21 03:44:28;;;;;;;62.38;36.40;;;;;;;4.20;94.54;100926.13;4997587;28;20054;-72
2021/03/21 03:47:17;;;;;;;57.65;32.88;;;;;;;4.19;94.39;100924.38;4997282;28;20436;-71
2021/03/21 03:49:59;;;;;;;57.10;35.38;;;;;;;4.15;94.76;100925.38;4997625;28;20050;-71
2021/03/21 03:52:50;;;;;;;64.55;37.35;;;;;;;4.06;95.24;100924.66;4997287;28;20050;-71
2021/03/21 03:55:31;;;;;;;60.38;34.35;;;;;;;4.15;95.56;100925.38;4997405;28;20054;-73
2021/03/21 03:58:08;;;;;;;62.30;36.38;;;;;;;4.16;95.48;100917.41;4997499;28;20054;-73
2021/03/21 04:00:48;;;;;;;59.92;36.25;;;;;;;4.20;95.46;100924.34;5012840;28;20431;-71
2021/03/21 04:03:26;;;;;;;60.80;35.08;;;;;;;4.15;95.41;100930.66;5016818;28;20129;-72
2021/03/21 04:05:56;;;;;;;53.88;32.38;;;;;;;4.16;95.61;100917.41;5016939;28;20091;-72
2021/03/21 04:08:52;;;;;;;64.05;35.90;;;;;;;4.14;95.30;100931.56;5016159;28;20065;-71
2021/03/21 04:11:21;;;;;;;55.42;30.45;;;;;;;4.20;95.23;100929.63;5017116;28;20045;-71
2021/03/21 04:14:11;;;;;;;62.75;33.92;;;;;;;4.18;95.76;100941.13;5018055;28;20085;-72
2021/03/21 04:16:44;;;;;;;63.47;32.00;;;;;;;4.18;95.89;100944.66;5016808;28;20054;-71
2021/03/21 04:19:13;;;;;;;58.22;32.63;;;;;;;4.11;95.55;100919.28;5016680;28;20459;-72
2021/03/21 04:22:01;;;;;;;59.22;32.97;;;;;;;4.23;95.72;100943.69;5017024;28;20054;-72
2021/03/21 04:24:35;;;;;;;57.13;34.22;;;;;;;4.24;95.81;100942.78;5017119;28;20058;-73
2021/03/21 04:27:05;;;;;;;65.15;33.92;;;;;;;4.18;95.75;100941.13;5016794;28;20050;-72
2021/03/21 04:29:39;;;;;;;59.40;32.92;;;;;;;4.15;96.05;100931.50;5017397;28;20085;-71
2021/03/21 04:32:09;;;;;;;55.05;32.15;;;;;;;4.22;96.56;100942.81;5017203;28;20344;-73
2021/03/21 04:34:39;;;;;;;54.50;32.27;;;;;;;4.06;96.76;100939.63;5017454;28;20403;-72
2021/03/21 04:37:07;;;;;;;55.08;32.83;;;;;;;4.12;96.85;100938.63;5017371;28;20306;-71
2021/03/21 04:39:35;;;;;;;55.97;30.75;;;;;;;4.06;97.15;100934.34;5016674;28;20418;-72
2021/03/21 04:42:07;;;;;;;58.70;32.97;;;;;;;4.00;97.38;100924.78;5015790;28;20050;-72
2021/03/21 04:44:48;;;;;;;59.78;35.55;;;;;;;4.08;97.46;100935.19;5015676;28;20149;-72
2021/03/21 04:47:24;;;;;;;55.45;32.00;;;;;;;4.16;97.84;100935.91;5016176;28;20065;-72
2021/03/21 04:49:55;;;;;;;51.70;31.65;;;;;;;4.16;96.98;100935.03;5016511;28;20081;-71
2021/03/21 04:52:32;;;;;;;49.40;29.38;;;;;;;4.24;97.04;100940.16;5047834;28;20053;-71
2021/03/21 04:55:00;;;;;;;48.03;28.30;;;;;;;4.01;96.98;100909.78;5015957;28;20049;-71
2021/03/21 04:57:37;;;;;;;46.65;27.67;;;;;;;4.11;96.98;100937.78;5016083;28;20144;-72
2021/03/21 05:00:17;;;;;;;43.47;26.90;;;;;;;4.11;97.20;100931.59;5004573;28;20061;-72
2021/03/21 05:02:46;;;;;;;44.83;27.45;;;;;;;4.12;97.36;100935.97;4996041;28;20054;-72
2021/03/21 05:05:27;;;;;;;43.75;27.45;;;;;;;4.19;97.42;100932.28;4996149;28;20058;-72
2021/03/21 05:08:04;;;;;;;44.38;26.75;;;;;;;4.11;97.16;100921.91;4996128;28;20133;-71
2021/03/21 05:10:38;;;;;;;45.15;27.55;;;;;;;4.14;97.59;100921.84;4996421;28;20050;-71
2021/03/21 05:13:06;;;;;;;43.45;26.67;;;;;;;4.17;97.38;100913.84;4994907;28;20054;-71
2021/03/21 05:15:45;;;;;;;42.85;26.23;;;;;;;4.19;97.39;100912.03;4995997;28;20090;-72
2021/03/21 05:18:21;;;;;;;39.92;23.65;;;;;;;4.22;96.73;100903.19;4996193;28;20050;-72
2021/03/21 05:20:54;;;;;;;40.10;26.08;;;;;;;4.23;97.24;100914.63;4995797;28;20062;-72
2021/03/21 05:23:46;;;;;;;41.63;26.90;;;;;;;4.28;97.42;100913.63;4996075;28;20046;-73
2021/03/21 05:26:25;;;;;;;41.80;26.20;;;;;;;4.31;97.15;100921.47;4996109;28;20050;-71
2021/03/21 05:29:01;;;;;;;42.90;27.95;;;;;;;4.36;97.19;100926.63;4995748;28;20085;-71
2021/03/21 05:31:28;;;;;;;43.15;27.15;;;;;;;4.41;97.20;100918.63;4995925;28;20054;-72
2021/03/21 05:33:55;;;;;;;46.05;28.83;;;;;;;4.29;96.94;100912.72;4995567;28;20317;-72
2021/03/21 05:36:32;;;;;;;46.65;27.90;;;;;;;4.37;97.40;100915.19;4995654;28;20061;-73
2021/03/21 05:39:01;;;;;;;43.47;26.90;;;;;;;4.41;96.81;100913.34;5025524;28;20100;-72
2021/03/21 05:41:42;;;;;;;46.55;28.08;;;;;;;4.34;97.19;100907.31;4995796;28;20085;-71
2021/03/21 05:44:26;;;;;;;45.28;28.83;;;;;;;4.42;96.84;100905.34;4995747;28;20054;-71
2021/03/21 05:47:10;;;;;;;47.90;28.52;;;;;;;4.38;97.13;100902.81;4995329;28;20062;-71
2021/03/21 05:50:07;;;;;;;46.38;28.77;;;;;;;4.44;97.13;100900.91;4995740;28;20077;-71
2021/03/21 05:53:07;;;;;;;43.67;27.67;;;;;;;4.51;97.13;100895.50;4995473;28;20113;-71
2021/03/21 05:55:48;;;;;;;45.35;28.30;;;;;;;4.48;96.69;100894.63;4994715;28;20054;-70
2021/03/21 05:58:28;;;;;;;43.63;26.83;;;;;;;4.47;96.93;100890.25;4995832;28;20058;-73
2021/03/21 06:01:06;;;;;;;47.22;28.75;;;;;;;4.47;96.81;100884.97;5014013;28;20347;-72
2021/03/21 06:04:11;;;;;;;46.17;28.08;;;;;;;4.46;96.96;100885.88;5015231;28;20045;-72
2021/03/21 06:07:25;;;;;;;51.63;29.35;;;;;;;4.41;97.76;100895.69;5015444;28;20053;-71
2021/03/21 06:10:29;;;;;;;51.88;29.48;;;;;;;4.42;97.64;100875.44;4993227;28;20073;-72
2021/03/21 06:13:28;;;;;;;54.35;30.17;;;;;;;4.55;97.01;100882.16;5015126;28;20069;-71
2021/03/21 06:16:45;;;;;;;51.83;29.13;;;;;;;4.59;96.95;100883.78;5014991;28;20115;-73
2021/03/21 06:19:34;;;;;;;48.20;29.33;;;;;;;4.63;97.03;100871.38;4992339;28;20058;-73
2021/03/21 06:22:14;;;;;;;49.92;29.85;;;;;;;4.66;97.09;100878.38;5014210;28;20057;-72
2021/03/21 06:25:19;;;;;;;53.40;31.88;;;;;;;4.59;97.12;100864.44;5015158;28;20050;-73
2021/03/21 06:28:22;;;;;;;59.70;32.95;;;;;;;4.61;97.24;100884.66;5014868;28;20054;-73
2021/03/21 06:31:05;;;;;;;58.55;33.10;;;;;;;4.63;97.33;100897.81;5015156;28;20057;-73
2021/03/21 06:34:09;;;;;;;64.50;33.83;;;;;;;4.60;97.62;100890.84;5018474;28;20501;-73
2021/03/21 06:37:05;;;;;;;63.63;34.22;;;;;;;4.59;97.98;100886.44;5017478;28;20062;-73
2021/03/21 06:39:52;;;;;;;63.85;34.10;;;;;;;4.62;98.61;100896.97;5018387;28;20054;-72
2021/03/21 06:42:45;;;;;;;73.32;37.67;;;;;;;4.61;98.36;100903.16;5018655;28;20061;-72
2021/03/21 06:45:30;;;;;;;74.88;38.53;;;;;;;4.68;98.64;100908.31;5018267;28;20056;-71
2021/03/21 06:48:15;;;;;;;80.43;38.67;;;;;;;4.67;98.45;100915.34;5016921;28;20058;-71
2021/03/21 06:51:22;;;;;;;73.03;37.65;;;;;;;4.68;98.78;100905.66;5018706;28;20324;-73
2021/03/21 06:54:08;;;;;;;73.93;38.58;;;;;;;4.74;98.55;100895.78;4986027;28;20062;-72
2021/03/21 06:57:11;;;;;;;70.60;36.38;;;;;;;4.72;98.25;100891.44;4998953;28;20050;-73
2021/03/21 07:00:11;;;;;;;78.50;38.60;;;;;;;4.67;98.79;100895.97;5003133;28;20447;-73
2021/03/21 07:02:46;;;;;;;78.93;38.80;;;;;;;4.64;99.36;100894.28;4998597;28;20336;-72
2021/03/21 07:05:42;;;;;;;77.30;38.72;;;;;;;4.64;99.50;100906.63;4998396;28;20081;-72
2021/03/21 07:08:46;;;;;;;77.05;38.03;;;;;;;4.61;99.61;100902.28;4998171;28;20344;-72
2021/03/21 07:11:51;;;;;;;83.15;38.45;;;;;;;4.63;100.00;100913.69;4997493;28;20062;-74
2021/03/21 07:14:56;;;;;;;79.95;38.67;;;;;;;4.66;100.00;100912.72;4998049;28;20043;-72
2021/03/21 07:17:56;;;;;;;85.47;38.83;;;;;;;4.67;100.00;100919.75;5017630;28;20053;-73
2021/03/21 07:20:41;;;;;;;83.82;38.42;;;;;;;4.73;100.00;100933.72;5015982;28;20056;-72
2021/03/21 07:23:21;;;;;;;86.38;38.45;;;;;;;4.73;99.88;100935.47;5017604;28;20551;-72
2021/03/21 07:26:08;;;;;;;80.72;37.30;;;;;;;4.75;100.00;100933.69;5017541;28;20455;-74
2021/03/21 07:28:54;;;;;;;90.40;38.55;;;;;;;4.77;100.00;100942.44;5017192;28;20053;-71
2021/03/21 07:31:26;;;;;;;83.30;37.53;;;;;;;4.82;100.00;100948.50;5015677;28;20050;-73
2021/03/21 07:34:13;;;;;;;72.45;35.33;;;;;;;4.92;99.26;100962.38;5017194;28;20474;-76
2021/03/21 07:39:05;;;;;;;70.75;31.85;;;;;;;5.07;98.33;100950.50;5047242;27;791160;-75
2021/03/21 07:41:50;;;;;;;63.58;30.33;;;;;;;5.19;97.90;100952.00;5052273;28;20398;-75
2021/03/21 07:44:28;;;;;;;62.67;32.10;;;;;;;5.23;97.74;100953.66;5035045;28;20122;-73
2021/03/21 07:47:20;;;;;;;58.17;29.42;;;;;;;5.30;97.49;100968.44;5034787;28;20049;-75
2021/03/21 07:50:05;;;;;;;52.78;27.77;;;;;;;5.35;96.59;100956.88;5052274;28;20497;-73
2021/03/21 07:52:57;;;;;;;47.72;25.60;;;;;;;5.42;96.05;100940.81;5052431;28;20049;-73
2021/03/21 07:55:46;;;;;;;42.25;23.80;;;;;;;5.37;95.24;100929.47;5052416;28;20064;-76
2021/03/21 07:58:21;;;;;;;39.55;22.02;;;;;;;5.39;94.31;100942.69;5052049;28;20390;-76
2021/03/21 08:00:48;;;;;;;41.78;22.40;;;;;;;5.35;94.43;100935.72;5051985;28;20454;-73
2021/03/21 08:03:14;;;;;;;38.17;21.85;;;;;;;5.42;94.59;100958.47;5052012;28;20619;-75
2021/03/21 08:05:41;;;;;;;38.60;20.88;;;;;;;5.50;93.98;100964.41;5052094;28;20095;-76
2021/03/21 08:08:20;;;;;;;38.55;20.02;;;;;;;5.55;93.03;100965.16;5052015;28;20055;-73
2021/03/21 08:10:52;;;;;;;32.97;16.33;;;;;;;5.70;92.78;100970.94;5034394;28;20053;-76
2021/03/21 08:13:40;;;;;;;26.25;15.38;;;;;;;5.68;91.59;100954.25;5052060;28;20061;-73
2021/03/21 08:16:13;;;;;;;32.10;17.95;;;;;;;5.61;91.94;100961.47;5051761;28;20049;-73
2021/03/21 08:18:39;;;;;;;31.52;16.80;;;;;;;5.66;91.27;100964.03;5051740;28;20053;-76
2021/03/21 08:21:14;;;;;;;26.83;12.98;;;;;;;5.64;89.96;100965.81;5050771;28;20056;-73
2021/03/21 08:23:44;;;;;;;32.35;14.93;;;;;;;5.53;90.81;100971.41;5051710;28;20045;-74
2021/03/21 08:26:13;;;;;;;25.10;12.75;;;;;;;5.60;88.84;100975.63;5051838;28;20049;-71
2021/03/21 08:29:01;;;;;;;24.98;14.32;;;;;;;5.64;90.20;100965.81;5051926;28;20393;-71
2021/03/21 08:31:44;;;;;;;23.52;11.93;;;;;;;5.67;88.42;100947.22;5051291;28;20048;-72
2021/03/21 08:34:17;;;;;;;23.02;11.23;;;;;;;5.77;87.56;100951.31;5051423;28;20061;-78
2021/03/21 08:36:44;;;;;;;24.95;12.07;;;;;;;5.81;88.57;100953.00;5042284;28;20045;-76
2021/03/21 08:39:35;;;;;;;24.38;12.30;;;;;;;5.80;88.84;100956.56;5027223;28;20049;-75
2021/03/21 08:42:02;;;;;;;;;;;;;;;5.90;87.62;100957.16;5040954;28;20053;-75
2021/03/21 08:44:31;;;;;;;19.08;8.18;;;;;;;5.87;87.29;100959.88;5019093;28;19921;-74
2021/03/21 08:46:58;;;;;;;18.00;8.40;;;;;;;5.87;86.81;100957.22;5031390;28;20050;-73
2021/03/21 08:49:30;;;;;;;20.27;9.35;;;;;;;5.81;86.46;100960.94;5034151;28;20045;-72
2021/03/21 08:51:58;;;;;;;18.73;8.82;;;;;;;5.78;86.45;100971.59;5020258;28;20351;-72
2021/03/21 08:54:28;;;;;;;13.60;6.65;;;;;;;5.84;85.28;100975.88;5037724;28;20053;-72
2021/03/21 08:57:05;;;;;;;19.88;6.15;;;;;;;5.74;86.14;100962.03;5029384;28;20056;-71
2021/03/21 08:59:31;;;;;;;12.13;5.97;;;;;;;5.79;85.51;100962.75;5030636;28;20085;-74
2021/03/21 09:02:05;;;;;;;19.27;6.22;;;;;;;5.77;85.42;100963.72;5017822;28;20054;-73
2021/03/21 09:04:33;;;;;;;11.48;5.75;;;;;;;5.78;85.48;100946.91;5017663;28;20058;-75
2021/03/21 09:07:32;;;;;;;14.02;5.22;;;;;;;5.85;85.50;100970.50;5000450;28;20135;-76
2021/03/21 09:10:11;;;;;;;20.27;6.40;;;;;;;5.80;84.80;100967.16;5017914;28;20395;-75
2021/03/21 09:12:42;;;;;;;11.57;5.25;;;;;;;5.74;85.69;100954.06;5017653;28;20054;-74
2021/03/21 09:15:28;;;;;;;9.32;5.43;;;;;;;5.71;85.03;100967.38;5011488;28;20060;-74
2021/03/21 09:18:16;;;;;;;12.93;5.22;;;;;;;5.68;84.66;100970.13;5027518;28;20462;-74
2021/03/21 09:21:15;;;;;;;13.25;5.65;;;;;;;5.67;85.60;100981.63;5031442;28;20049;-76
2021/03/21 09:24:06;;;;;;;16.52;4.93;;;;;;;5.69;84.76;100990.41;5046571;28;20053;-74
2021/03/21 09:26:42;;;;;;;12.35;5.03;;;;;;;5.78;84.01;100984.84;5037895;28;20057;-77
2021/03/21 09:29:33;;;;;;;13.63;5.65;;;;;;;5.75;84.07;100973.47;5050897;28;20045;-74
2021/03/21 09:32:05;;;;;;;11.70;4.22;;;;;;;5.87;83.86;100980.22;5028138;28;20327;-74
2021/03/21 09:34:40;;;;;;;11.25;4.63;;;;;;;5.87;81.18;100975.78;5017573;28;20347;-75
2021/03/21 09:37:11;;;;;;;8.90;3.92;;;;;;;5.87;82.15;100977.56;5001358;28;20054;-74
2021/03/21 09:40:03;;;;;;;12.05;4.70;;;;;;;5.89;81.29;100970.44;5017202;28;20137;-75
2021/03/21 09:42:30;;;;;;;15.23;4.25;;;;;;;5.93;82.10;100972.06;5016850;28;20116;-74
2021/03/21 09:44:56;;;;;;;11.93;3.85;;;;;;;6.01;81.89;100975.41;5008439;28;20050;-74
2021/03/21 09:47:31;;;;;;;8.55;3.70;;;;;;;6.08;82.38;100978.75;5008551;28;20137;-73
2021/03/21 09:50:29;;;;;;;10.18;3.80;;;;;;;6.11;80.36;100982.19;5001390;28;20050;-76
2021/03/21 09:53:20;;;;;;;16.90;4.43;;;;;;;6.16;79.53;101000.59;4996463;28;20146;-69
2021/03/21 09:55:51;;;;;;;12.63;3.25;;;;;;;6.08;79.62;100997.31;4997504;28;20050;-71
2021/03/21 09:58:37;;;;;;;12.27;3.30;;;;;;;6.20;78.90;101001.38;4995956;28;20074;-72
2021/03/21 10:01:39;;;;;;;9.57;3.25;;;;;;;6.32;77.63;101000.16;5015777;28;20081;-72
2021/03/21 10:04:17;;;;;;;16.65;3.70;;;;;;;6.42;78.42;101003.41;4997326;28;20325;-71
2021/03/21 10:06:49;;;;;;;14.30;3.50;;;;;;;6.47;78.06;101004.13;4997196;28;20173;-72
2021/03/21 10:09:19;;;;;;;10.85;3.03;;;;;;;6.54;77.05;101000.38;5007557;28;20060;-71
2021/03/21 10:11:50;;;;;;;14.38;3.00;;;;;;;6.48;76.82;101000.59;5007079;28;20053;-71
2021/03/21 10:14:22;;;;;;;14.00;2.90;;;;;;;6.55;76.48;101010.09;5007575;28;20042;-71
2021/03/21 10:16:51;;;;;;;7.55;2.63;;;;;;;6.60;75.70;101009.94;5017234;28;20069;-72
2021/03/21 10:19:38;;;;;;;16.38;2.80;;;;;;;6.57;75.11;101013.56;5001534;28;20057;-73
2021/03/21 10:22:16;;;;;;;11.77;2.78;;;;;;;6.61;74.43;101009.91;4996994;28;20050;-73
2021/03/21 10:24:45;;;;;;;17.58;2.88;;;;;;;6.56;74.11;101002.97;4996884;28;20054;-74
2021/03/21 10:27:14;;;;;;;15.75;2.70;;;;;;;6.57;72.83;101004.72;4996931;28;20069;-76
2021/03/21 10:29:42;;;;;;;11.10;2.90;;;;;;;6.57;73.15;101004.72;4998016;28;20081;-74
2021/03/21 10:32:21;;;;;;;13.18;2.42;;;;;;;6.51;72.72;100989.88;5023424;28;20081;-82
2021/03/21 10:34:57;;;;;;;11.05;3.10;;;;;;;6.66;71.72;101002.66;5014751;28;20054;-78
2021/03/21 10:37:54;;;;;;;11.40;2.03;;;;;;;6.77;71.49;101004.09;5012801;28;20387;-75
2021/03/21 10:40:23;;;;;;;20.75;3.42;;;;;;;6.96;72.07;100996.41;5023184;28;20123;-75
2021/03/21 10:43:08;;;;;;;17.13;2.65;;;;;;;7.16;69.79;100993.13;5036488;28;20057;-75
2021/03/21 10:45:34;;;;;;;14.65;2.65;;;;;;;7.27;70.06;100990.09;5027355;28;20049;-74
2021/03/21 10:48:14;;;;;;;14.50;3.28;;;;;;;7.37;70.00;100993.31;5018620;28;20080;-76
2021/03/21 10:51:08;;;;;;;15.55;2.58;;;;;;;7.13;69.46;100995.00;5016259;28;20050;-73
2021/03/21 10:53:42;;;;;;;12.88;2.80;;;;;;;7.31;69.53;100996.19;5016858;28;20053;-75
2021/03/21 10:56:18;;;;;;;14.82;2.45;;;;;;;7.26;68.49;101003.41;4999800;28;20187;-74
2021/03/21 10:59:06;;;;;;;17.15;2.70;;;;;;;7.23;67.86;101004.38;5016904;28;20046;-74
2021/03/21 11:02:27;;;;;;;17.85;3.33;;;;;;;7.31;66.29;100998.84;5026264;28;20084;-75
2021/03/21 11:05:07;;;;;;;17.73;3.28;;;;;;;7.32;66.42;100987.28;4983837;28;20060;-76
2021/03/21 11:07:34;;;;;;;14.40;2.03;;;;;;;7.63;65.32;100988.00;5002147;28;20352;-73
2021/03/21 11:10:12;;;;;;;13.73;2.95;;;;;;;7.84;65.20;100989.03;5016457;28;20096;-77
2021/03/21 11:12:40;;;;;;;17.77;2.70;;;;;;;7.88;65.78;100996.84;5016142;28;20054;-73
2021/03/21 11:15:25;;;;;;;10.88;2.40;;;;;;;7.78;63.96;101000.75;5015348;28;20058;-73
2021/03/21 11:17:52;;;;;;;15.77;2.38;;;;;;;7.85;64.05;100990.78;5015565;28;20046;-74
2021/03/21 11:20:35;;;;;;;13.93;2.55;;;;;;;7.82;64.34;100985.56;4998252;28;20057;-75
2021/03/21 11:23:15;;;;;;;15.88;2.83;;;;;;;7.75;64.38;100983.09;5015483;28;20050;-76
2021/03/21 11:25:42;;;;;;;12.37;2.30;;;;;;;7.53;65.68;100990.13;5015829;28;20072;-76
2021/03/21 11:28:22;;;;;;;16.02;3.28;;;;;;;7.51;66.19;100984.84;5015179;28;20286;-75
2021/03/21 11:30:58;;;;;;;19.13;3.13;;;;;;;7.54;66.79;100987.41;5030283;28;20087;-77
2021/03/21 11:33:34;;;;;;;21.20;3.08;;;;;;;7.46;66.57;100960.22;5035286;28;20053;-75
2021/03/21 11:36:29;;;;;;;21.35;4.18;;;;;;;7.53;66.75;100982.16;5045212;28;20119;-78
2021/03/21 11:38:55;;;;;;;14.48;2.90;;;;;;;7.53;66.37;100992.78;5052825;28;20059;-76
2021/03/21 11:41:30;;;;;;;17.65;2.58;;;;;;;7.52;68.12;100988.38;5037420;28;20057;-77
2021/03/21 11:44:18;;;;;;;12.65;3.17;;;;;;;7.62;68.03;100987.13;5054902;28;20065;-77
2021/03/21 11:46:46;;;;;;;18.92;3.20;;;;;;;7.56;66.85;101001.50;5054820;28;20057;-75
2021/03/21 11:49:13;;;;;;;24.48;4.30;;;;;;;7.33;68.41;100989.00;5037220;28;20435;-76
2021/03/21 11:51:41;;;;;;;17.67;3.25;;;;;;;7.29;67.27;100992.69;5034737;28;20053;-75
2021/03/21 11:54:16;;;;;;;22.98;3.28;;;;;;;7.26;67.65;100985.72;5034813;28;20057;-77
2021/03/21 11:56:55;;;;;;;20.13;3.42;;;;;;;7.38;66.72;100996.81;5035187;28;20076;-75
2021/03/21 11:59:29;;;;;;;19.08;3.40;;;;;;;7.49;65.31;100989.34;5011776;28;20050;-75
2021/03/21 12:01:57;;;;;;;17.15;2.78;;;;;;;7.41;64.23;100980.78;4998106;28;20057;-76
2021/03/21 12:04:39;;;;;;;23.05;3.95;;;;;;;7.64;62.76;100985.31;5015278;28;20054;-76
2021/03/21 12:07:21;;;;;;;17.92;3.70;;;;;;;7.59;63.37;100973.97;5018751;28;20050;-75
2021/03/21 12:09:49;;;;;;;14.80;2.60;;;;;;;7.75;62.50;100985.75;5001664;28;20054;-74
2021/03/21 12:12:35;;;;;;;21.08;3.15;;;;;;;7.85;62.25;100988.13;5013432;28;20428;-74